sensor_id;sensor_type;location;lat;lon;timestamp;pressure;altitude;pressure_sealevel;temperature;humidity
9091;BME280;4581;42.416;25.598;2023-06-10T00:00:29;97860.13;;;19.15;75.97
9091;BME280;4581;42.416;25.598;2023-06-10T00:02:58;97858.72;;;19.12;75.88
9091;BME280;4581;42.416;25.598;2023-06-10T00:05:26;97861.44;;;19.12;75.53
9091;BME280;4581;42.416;25.598;2023-06-10T00:07:56;97859.78;;;19.11;75.38
9091;BME280;4581;42.416;25.598;2023-06-10T00:10:23;97863.19;;;19.18;74.05
9091;BME280;4581;42.416;25.598;2023-06-10T00:12:50;97861.53;;;19.17;73.52
9091;BME280;4581;42.416;25.598;2023-06-10T00:15:18;97857.16;;;19.16;73.12
9091;BME280;4581;42.416;25.598;2023-06-10T00:17:45;97853.47;;;19.11;73.64
9091;BME280;4581;42.416;25.598;2023-06-10T00:20:12;97856.47;;;19.09;73.58
9091;BME280;4581;42.416;25.598;2023-06-10T00:22:39;97850.75;;;19.11;73.08
9091;BME280;4581;42.416;25.598;2023-06-10T00:25:08;97850.25;;;19.14;73.48
9091;BME280;4581;42.416;25.598;2023-06-10T00:27:36;97855.81;;;19.19;72.82
9091;BME280;4581;42.416;25.598;2023-06-10T00:30:04;97856.31;;;19.16;73.36
9091;BME280;4581;42.416;25.598;2023-06-10T00:32:33;97864.50;;;19.16;73.37
9091;BME280;4581;42.416;25.598;2023-06-10T00:35:01;97862.00;;;19.14;73.41
9091;BME280;4581;42.416;25.598;2023-06-10T00:37:27;97862.84;;;19.15;74.00
9091;BME280;4581;42.416;25.598;2023-06-10T00:39:56;97859.63;;;19.18;73.96
9091;BME280;4581;42.416;25.598;2023-06-10T00:42:22;97852.97;;;19.14;74.25
9091;BME280;4581;42.416;25.598;2023-06-10T00:44:51;97855.06;;;19.07;74.13
9091;BME280;4581;42.416;25.598;2023-06-10T00:47:18;97854.16;;;19.01;74.69
9091;BME280;4581;42.416;25.598;2023-06-10T00:49:46;97861.97;;;18.98;75.59
9091;BME280;4581;42.416;25.598;2023-06-10T00:52:14;97854.78;;;18.92;75.42
9091;BME280;4581;42.416;25.598;2023-06-10T00:54:42;97850.88;;;18.88;75.18
9091;BME280;4581;42.416;25.598;2023-06-10T00:57:10;97862.31;;;18.85;75.77
9091;BME280;4581;42.416;25.598;2023-06-10T00:59:38;97861.22;;;18.86;75.39
9091;BME280;4581;42.416;25.598;2023-06-10T01:02:06;97864.19;;;18.84;75.51
9091;BME280;4581;42.416;25.598;2023-06-10T01:04:34;97862.31;;;18.85;75.16
9091;BME280;4581;42.416;25.598;2023-06-10T01:07:11;97863.94;;;18.86;75.42
9091;BME280;4581;42.416;25.598;2023-06-10T01:09:54;97858.63;;;18.79;75.63
9091;BME280;4581;42.416;25.598;2023-06-10T01:12:27;97862.09;;;18.75;75.79
9091;BME280;4581;42.416;25.598;2023-06-10T01:14:55;97857.22;;;18.77;75.23
9091;BME280;4581;42.416;25.598;2023-06-10T01:17:23;97851.44;;;18.73;75.16
9091;BME280;4581;42.416;25.598;2023-06-10T01:19:56;97848.25;;;18.64;75.62
9091;BME280;4581;42.416;25.598;2023-06-10T01:22:24;97849.56;;;18.62;76.34
9091;BME280;4581;42.416;25.598;2023-06-10T01:24:52;97845.75;;;18.63;76.56
9091;BME280;4581;42.416;25.598;2023-06-10T01:27:21;97841.72;;;18.65;76.33
9091;BME280;4581;42.416;25.598;2023-06-10T01:29:58;97836.75;;;18.62;76.00
9091;BME280;4581;42.416;25.598;2023-06-10T01:34:53;97839.47;;;18.62;76.42
9091;BME280;4581;42.416;25.598;2023-06-10T01:37:23;97846.03;;;18.61;76.24
9091;BME280;4581;42.416;25.598;2023-06-10T01:39:52;97841.03;;;18.58;76.51
9091;BME280;4581;42.416;25.598;2023-06-10T01:42:21;97842.00;;;18.52;77.15
9091;BME280;4581;42.416;25.598;2023-06-10T01:44:48;97852.31;;;18.50;77.38
9091;BME280;4581;42.416;25.598;2023-06-10T01:47:15;97853.41;;;18.49;78.11
9091;BME280;4581;42.416;25.598;2023-06-10T01:49:41;97846.75;;;18.45;77.79
9091;BME280;4581;42.416;25.598;2023-06-10T01:52:08;97854.34;;;18.43;78.35
9091;BME280;4581;42.416;25.598;2023-06-10T01:54:35;97861.13;;;18.41;78.12
9091;BME280;4581;42.416;25.598;2023-06-10T01:57:02;97856.13;;;18.38;78.26
9091;BME280;4581;42.416;25.598;2023-06-10T01:59:29;97850.34;;;18.34;78.14
9091;BME280;4581;42.416;25.598;2023-06-10T02:01:56;97852.50;;;18.32;78.46
9091;BME280;4581;42.416;25.598;2023-06-10T02:04:22;97852.38;;;18.27;79.24
9091;BME280;4581;42.416;25.598;2023-06-10T02:06:49;97858.31;;;18.24;79.61
9091;BME280;4581;42.416;25.598;2023-06-10T02:09:16;97862.72;;;18.25;79.66
9091;BME280;4581;42.416;25.598;2023-06-10T02:11:45;97865.06;;;18.21;79.43
9091;BME280;4581;42.416;25.598;2023-06-10T02:14:11;97866.25;;;18.25;79.62
9091;BME280;4581;42.416;25.598;2023-06-10T02:16:38;97855.34;;;18.25;79.49
9091;BME280;4581;42.416;25.598;2023-06-10T02:19:06;97860.00;;;18.25;78.48
9091;BME280;4581;42.416;25.598;2023-06-10T02:21:33;97860.09;;;18.18;78.63
9091;BME280;4581;42.416;25.598;2023-06-10T02:24:00;97861.06;;;18.12;79.22
9091;BME280;4581;42.416;25.598;2023-06-10T02:26:27;97855.97;;;18.16;79.18
9091;BME280;4581;42.416;25.598;2023-06-10T02:28:54;97853.47;;;18.14;79.49
9091;BME280;4581;42.416;25.598;2023-06-10T02:31:21;97854.41;;;18.20;79.70
9091;BME280;4581;42.416;25.598;2023-06-10T02:33:48;97854.66;;;18.18;79.99
9091;BME280;4581;42.416;25.598;2023-06-10T02:36:14;97849.19;;;18.18;79.84
9091;BME280;4581;42.416;25.598;2023-06-10T02:38:42;97846.59;;;18.12;79.22
9091;BME280;4581;42.416;25.598;2023-06-10T02:41:09;97845.91;;;18.05;79.50
9091;BME280;4581;42.416;25.598;2023-06-10T02:43:35;97846.84;;;17.99;79.42
9091;BME280;4581;42.416;25.598;2023-06-10T02:46:02;97853.38;;;17.98;79.50
9091;BME280;4581;42.416;25.598;2023-06-10T02:48:29;97860.50;;;17.99;79.77
9091;BME280;4581;42.416;25.598;2023-06-10T02:50:55;97862.72;;;18.02;80.11
9091;BME280;4581;42.416;25.598;2023-06-10T02:53:22;97871.75;;;18.02;80.22
9091;BME280;4581;42.416;25.598;2023-06-10T02:55:49;97869.84;;;18.03;81.09
9091;BME280;4581;42.416;25.598;2023-06-10T02:58:15;97865.22;;;18.03;81.50
9091;BME280;4581;42.416;25.598;2023-06-10T03:00:42;97869.63;;;18.04;81.63
9091;BME280;4581;42.416;25.598;2023-06-10T03:03:09;97861.78;;;18.08;81.68
9091;BME280;4581;42.416;25.598;2023-06-10T03:05:37;97857.38;;;18.18;81.46
9091;BME280;4581;42.416;25.598;2023-06-10T03:08:04;97864.84;;;18.23;81.25
9091;BME280;4581;42.416;25.598;2023-06-10T03:10:30;97861.06;;;18.24;81.36
9091;BME280;4581;42.416;25.598;2023-06-10T03:12:59;97863.41;;;18.32;80.34
9091;BME280;4581;42.416;25.598;2023-06-10T03:15:26;97862.22;;;18.28;81.39
9091;BME280;4581;42.416;25.598;2023-06-10T03:17:55;97873.16;;;18.28;82.34
9091;BME280;4581;42.416;25.598;2023-06-10T03:20:22;97865.41;;;18.37;82.33
9091;BME280;4581;42.416;25.598;2023-06-10T03:22:48;97873.50;;;18.32;82.79
9091;BME280;4581;42.416;25.598;2023-06-10T03:25:15;97866.38;;;18.31;82.95
9091;BME280;4581;42.416;25.598;2023-06-10T03:27:42;97862.41;;;18.38;83.60
9091;BME280;4581;42.416;25.598;2023-06-10T03:30:09;97867.44;;;18.41;83.94
9091;BME280;4581;42.416;25.598;2023-06-10T03:32:36;97863.59;;;18.42;84.39
9091;BME280;4581;42.416;25.598;2023-06-10T03:35:04;97867.03;;;18.49;85.00
9091;BME280;4581;42.416;25.598;2023-06-10T03:37:31;97863.84;;;18.52;85.21
9091;BME280;4581;42.416;25.598;2023-06-10T03:39:58;97860.41;;;18.57;84.58
9091;BME280;4581;42.416;25.598;2023-06-10T03:42:24;97872.56;;;18.66;83.96
9091;BME280;4581;42.416;25.598;2023-06-10T03:44:51;97864.66;;;18.64;83.83
9091;BME280;4581;42.416;25.598;2023-06-10T03:47:18;97859.84;;;18.72;84.59
9091;BME280;4581;42.416;25.598;2023-06-10T03:49:44;97866.50;;;18.76;85.21
9091;BME280;4581;42.416;25.598;2023-06-10T03:52:11;97871.78;;;18.82;84.30
9091;BME280;4581;42.416;25.598;2023-06-10T03:54:38;97858.97;;;18.83;84.72
9091;BME280;4581;42.416;25.598;2023-06-10T03:57:05;97861.22;;;18.86;84.90
9091;BME280;4581;42.416;25.598;2023-06-10T03:59:32;97845.41;;;18.88;84.56
9091;BME280;4581;42.416;25.598;2023-06-10T04:01:59;97854.28;;;18.95;84.19
9091;BME280;4581;42.416;25.598;2023-06-10T04:04:26;97848.91;;;19.00;84.41
9091;BME280;4581;42.416;25.598;2023-06-10T04:06:53;97856.22;;;19.11;84.97
9091;BME280;4581;42.416;25.598;2023-06-10T04:09:20;97853.06;;;19.19;85.85
9091;BME280;4581;42.416;25.598;2023-06-10T04:11:46;97852.09;;;19.25;85.74
9091;BME280;4581;42.416;25.598;2023-06-10T04:14:14;97845.13;;;19.34;86.43
9091;BME280;4581;42.416;25.598;2023-06-10T04:16:41;97854.25;;;19.40;86.12
9091;BME280;4581;42.416;25.598;2023-06-10T04:19:09;97846.50;;;19.48;86.33
9091;BME280;4581;42.416;25.598;2023-06-10T04:21:36;97848.81;;;19.56;86.86
9091;BME280;4581;42.416;25.598;2023-06-10T04:24:03;97843.50;;;19.67;86.86
9091;BME280;4581;42.416;25.598;2023-06-10T04:26:30;97852.38;;;19.74;86.78
9091;BME280;4581;42.416;25.598;2023-06-10T04:28:56;97842.66;;;19.83;86.83
9091;BME280;4581;42.416;25.598;2023-06-10T04:31:23;97855.41;;;19.94;87.24
9091;BME280;4581;42.416;25.598;2023-06-10T04:33:50;97845.06;;;20.18;86.37
9091;BME280;4581;42.416;25.598;2023-06-10T04:36:17;97850.13;;;20.47;85.98
9091;BME280;4581;42.416;25.598;2023-06-10T04:38:44;97849.34;;;20.74;85.26
9091;BME280;4581;42.416;25.598;2023-06-10T04:41:10;97851.00;;;21.01;83.10
9091;BME280;4581;42.416;25.598;2023-06-10T04:43:38;97854.34;;;21.35;76.38
9091;BME280;4581;42.416;25.598;2023-06-10T04:46:05;97845.53;;;21.60;77.03
9091;BME280;4581;42.416;25.598;2023-06-10T04:48:34;97850.13;;;21.55;75.82
9091;BME280;4581;42.416;25.598;2023-06-10T04:51:02;97865.03;;;21.64;72.93
9091;BME280;4581;42.416;25.598;2023-06-10T04:53:29;97864.81;;;21.70;72.50
9091;BME280;4581;42.416;25.598;2023-06-10T04:55:56;97859.00;;;21.67;69.42
9091;BME280;4581;42.416;25.598;2023-06-10T04:58:23;97871.09;;;21.66;71.19
9091;BME280;4581;42.416;25.598;2023-06-10T05:00:50;97875.34;;;21.52;68.42
9091;BME280;4581;42.416;25.598;2023-06-10T05:03:17;97867.34;;;21.45;69.75
9091;BME280;4581;42.416;25.598;2023-06-10T05:05:44;97869.78;;;21.41;70.58
9091;BME280;4581;42.416;25.598;2023-06-10T05:08:11;97867.53;;;21.38;71.98
9091;BME280;4581;42.416;25.598;2023-06-10T05:10:37;97873.31;;;21.10;74.95
9091;BME280;4581;42.416;25.598;2023-06-10T05:13:04;97875.09;;;21.21;75.99
9091;BME280;4581;42.416;25.598;2023-06-10T05:15:31;97877.88;;;21.26;76.72
9091;BME280;4581;42.416;25.598;2023-06-10T05:17:57;97870.94;;;21.19;79.24
9091;BME280;4581;42.416;25.598;2023-06-10T05:20:25;97868.06;;;21.35;77.85
9091;BME280;4581;42.416;25.598;2023-06-10T05:22:52;97872.00;;;21.44;78.40
9091;BME280;4581;42.416;25.598;2023-06-10T05:25:19;97860.78;;;21.46;79.13
9091;BME280;4581;42.416;25.598;2023-06-10T05:27:45;97862.41;;;21.47;77.99
9091;BME280;4581;42.416;25.598;2023-06-10T05:30:12;97868.25;;;21.56;77.29
9091;BME280;4581;42.416;25.598;2023-06-10T05:32:39;97860.00;;;21.56;78.81
9091;BME280;4581;42.416;25.598;2023-06-10T05:35:06;97871.44;;;21.16;76.90
9091;BME280;4581;42.416;25.598;2023-06-10T05:37:34;97865.09;;;21.10;78.30
9091;BME280;4581;42.416;25.598;2023-06-10T05:40:01;97865.91;;;21.37;77.62
9091;BME280;4581;42.416;25.598;2023-06-10T05:42:28;97874.03;;;21.59;77.83
9091;BME280;4581;42.416;25.598;2023-06-10T05:44:54;97868.75;;;21.84;74.34
9091;BME280;4581;42.416;25.598;2023-06-10T05:47:21;97867.53;;;22.02;74.02
9091;BME280;4581;42.416;25.598;2023-06-10T05:49:48;97860.50;;;22.21;76.41
9091;BME280;4581;42.416;25.598;2023-06-10T05:52:16;97858.09;;;22.35;75.28
9091;BME280;4581;42.416;25.598;2023-06-10T05:54:42;97862.88;;;22.55;72.67
9091;BME280;4581;42.416;25.598;2023-06-10T05:57:09;97862.00;;;22.49;74.56
9091;BME280;4581;42.416;25.598;2023-06-10T05:59:36;97859.59;;;22.58;74.74
9091;BME280;4581;42.416;25.598;2023-06-10T06:02:03;97862.34;;;22.63;71.76
9091;BME280;4581;42.416;25.598;2023-06-10T06:04:30;97870.13;;;22.81;69.60
9091;BME280;4581;42.416;25.598;2023-06-10T06:06:57;97871.81;;;22.92;67.29
9091;BME280;4581;42.416;25.598;2023-06-10T06:09:24;97873.78;;;23.07;66.07
9091;BME280;4581;42.416;25.598;2023-06-10T06:11:50;97873.00;;;23.26;70.02
9091;BME280;4581;42.416;25.598;2023-06-10T06:14:17;97872.50;;;23.50;72.44
9091;BME280;4581;42.416;25.598;2023-06-10T06:16:44;97876.91;;;23.46;69.50
9091;BME280;4581;42.416;25.598;2023-06-10T06:19:10;97874.16;;;23.61;66.83
9091;BME280;4581;42.416;25.598;2023-06-10T06:21:37;97873.31;;;23.60;69.28
9091;BME280;4581;42.416;25.598;2023-06-10T06:24:04;97872.78;;;23.73;71.11
9091;BME280;4581;42.416;25.598;2023-06-10T06:26:31;97866.94;;;23.40;68.99
9091;BME280;4581;42.416;25.598;2023-06-10T06:28:58;97866.44;;;23.53;62.20
9091;BME280;4581;42.416;25.598;2023-06-10T06:31:25;97862.56;;;23.64;67.45
9091;BME280;4581;42.416;25.598;2023-06-10T06:33:51;97865.28;;;24.04;67.01
9091;BME280;4581;42.416;25.598;2023-06-10T06:36:18;97862.44;;;24.55;65.66
9091;BME280;4581;42.416;25.598;2023-06-10T06:38:45;97862.53;;;24.99;60.57
9091;BME280;4581;42.416;25.598;2023-06-10T06:41:12;97859.03;;;25.27;62.46
9091;BME280;4581;42.416;25.598;2023-06-10T06:43:38;97863.00;;;25.50;60.84
9091;BME280;4581;42.416;25.598;2023-06-10T06:46:05;97861.09;;;25.45;62.80
9091;BME280;4581;42.416;25.598;2023-06-10T06:48:31;97854.22;;;26.11;61.63
9091;BME280;4581;42.416;25.598;2023-06-10T06:50:58;97859.50;;;26.60;59.79
9091;BME280;4581;42.416;25.598;2023-06-10T06:53:25;97857.03;;;27.00;59.56
9091;BME280;4581;42.416;25.598;2023-06-10T06:55:54;97862.78;;;27.41;54.03
9091;BME280;4581;42.416;25.598;2023-06-10T06:58:21;97858.63;;;27.25;57.56
9091;BME280;4581;42.416;25.598;2023-06-10T07:00:48;97854.81;;;27.21;58.21
9091;BME280;4581;42.416;25.598;2023-06-10T07:03:15;97842.53;;;27.27;59.76
9091;BME280;4581;42.416;25.598;2023-06-10T07:05:45;97859.09;;;27.51;53.90
9091;BME280;4581;42.416;25.598;2023-06-10T07:08:11;97859.44;;;27.63;51.82
9091;BME280;4581;42.416;25.598;2023-06-10T07:10:38;97849.66;;;27.84;55.99
9091;BME280;4581;42.416;25.598;2023-06-10T07:13:05;97851.63;;;27.98;51.10
9091;BME280;4581;42.416;25.598;2023-06-10T07:15:31;97850.41;;;28.36;52.19
9091;BME280;4581;42.416;25.598;2023-06-10T07:17:59;97844.66;;;28.46;49.13
9091;BME280;4581;42.416;25.598;2023-06-10T07:20:26;97849.28;;;28.51;49.89
9091;BME280;4581;42.416;25.598;2023-06-10T07:22:53;97853.00;;;28.00;48.89
9091;BME280;4581;42.416;25.598;2023-06-10T07:25:20;97848.00;;;27.51;48.11
9091;BME280;4581;42.416;25.598;2023-06-10T07:27:46;97845.59;;;27.26;51.72
9091;BME280;4581;42.416;25.598;2023-06-10T07:30:13;97841.25;;;27.57;52.27
9091;BME280;4581;42.416;25.598;2023-06-10T07:32:40;97843.53;;;27.87;47.53
9091;BME280;4581;42.416;25.598;2023-06-10T07:35:08;97851.97;;;27.64;41.39
9091;BME280;4581;42.416;25.598;2023-06-10T07:37:35;97829.06;;;27.21;45.18
9091;BME280;4581;42.416;25.598;2023-06-10T07:40:03;97857.38;;;28.01;43.21
9091;BME280;4581;42.416;25.598;2023-06-10T07:42:35;97854.81;;;28.23;43.61
9091;BME280;4581;42.416;25.598;2023-06-10T07:45:03;97860.28;;;28.69;41.28
9091;BME280;4581;42.416;25.598;2023-06-10T07:47:30;97866.72;;;29.06;40.38
9091;BME280;4581;42.416;25.598;2023-06-10T07:49:57;97862.56;;;29.17;39.64
9091;BME280;4581;42.416;25.598;2023-06-10T07:52:24;97865.25;;;29.22;39.33
9091;BME280;4581;42.416;25.598;2023-06-10T07:54:51;97861.34;;;29.37;38.37
9091;BME280;4581;42.416;25.598;2023-06-10T07:57:19;97857.69;;;29.50;40.56
9091;BME280;4581;42.416;25.598;2023-06-10T07:59:45;97869.69;;;29.81;37.13
9091;BME280;4581;42.416;25.598;2023-06-10T08:02:12;97860.31;;;29.91;37.85
9091;BME280;4581;42.416;25.598;2023-06-10T08:04:39;97857.88;;;29.75;35.48
9091;BME280;4581;42.416;25.598;2023-06-10T08:07:06;97858.56;;;29.59;37.14
9091;BME280;4581;42.416;25.598;2023-06-10T08:09:32;97865.53;;;29.70;36.37
9091;BME280;4581;42.416;25.598;2023-06-10T08:11:59;97860.16;;;29.73;38.41
9091;BME280;4581;42.416;25.598;2023-06-10T08:14:26;97854.28;;;29.75;38.01
9091;BME280;4581;42.416;25.598;2023-06-10T08:16:53;97854.28;;;29.75;36.42
9091;BME280;4581;42.416;25.598;2023-06-10T08:19:20;97862.88;;;29.65;36.03
9091;BME280;4581;42.416;25.598;2023-06-10T08:21:46;97859.00;;;29.88;36.34
9091;BME280;4581;42.416;25.598;2023-06-10T08:24:13;97856.69;;;30.12;37.04
9091;BME280;4581;42.416;25.598;2023-06-10T08:26:43;97849.75;;;30.32;37.47
9091;BME280;4581;42.416;25.598;2023-06-10T08:29:12;97841.00;;;30.16;39.33
9091;BME280;4581;42.416;25.598;2023-06-10T08:31:42;97848.63;;;30.33;38.91
9091;BME280;4581;42.416;25.598;2023-06-10T08:34:09;97850.72;;;30.28;38.79
9091;BME280;4581;42.416;25.598;2023-06-10T08:36:36;97851.97;;;30.44;37.81
9091;BME280;4581;42.416;25.598;2023-06-10T08:39:03;97851.72;;;30.32;38.07
9091;BME280;4581;42.416;25.598;2023-06-10T08:41:31;97849.88;;;30.27;37.94
9091;BME280;4581;42.416;25.598;2023-06-10T08:46:36;97858.16;;;29.88;39.69
9091;BME280;4581;42.416;25.598;2023-06-10T08:49:05;97864.09;;;29.72;38.95
9091;BME280;4581;42.416;25.598;2023-06-10T08:51:35;97861.41;;;29.45;39.04
9091;BME280;4581;42.416;25.598;2023-06-10T08:54:08;97852.03;;;29.41;38.38
9091;BME280;4581;42.416;25.598;2023-06-10T08:56:39;97857.56;;;29.19;38.42
9091;BME280;4581;42.416;25.598;2023-06-10T08:59:07;97853.56;;;28.98;38.70
9091;BME280;4581;42.416;25.598;2023-06-10T09:01:35;97854.84;;;28.92;39.29
9091;BME280;4581;42.416;25.598;2023-06-10T09:04:03;97843.69;;;29.05;41.15
9091;BME280;4581;42.416;25.598;2023-06-10T09:06:32;97850.81;;;28.98;38.93
9091;BME280;4581;42.416;25.598;2023-06-10T09:09:00;97835.25;;;29.10;40.00
9091;BME280;4581;42.416;25.598;2023-06-10T09:11:29;97835.50;;;29.00;40.87
9091;BME280;4581;42.416;25.598;2023-06-10T09:13:56;97842.75;;;29.10;39.70
9091;BME280;4581;42.416;25.598;2023-06-10T09:16:24;97830.97;;;28.91;38.36
9091;BME280;4581;42.416;25.598;2023-06-10T09:18:51;97819.19;;;28.71;40.01
9091;BME280;4581;42.416;25.598;2023-06-10T09:21:22;97827.56;;;28.94;41.07
9091;BME280;4581;42.416;25.598;2023-06-10T09:23:50;97838.81;;;28.89;40.88
9091;BME280;4581;42.416;25.598;2023-06-10T09:26:18;97829.03;;;28.77;39.87
9091;BME280;4581;42.416;25.598;2023-06-10T09:28:48;97828.34;;;28.72;40.36
9091;BME280;4581;42.416;25.598;2023-06-10T09:31:16;97824.31;;;28.78;41.24
9091;BME280;4581;42.416;25.598;2023-06-10T09:33:45;97826.47;;;28.67;41.66
9091;BME280;4581;42.416;25.598;2023-06-10T09:36:21;97826.16;;;28.55;42.21
9091;BME280;4581;42.416;25.598;2023-06-10T09:38:49;97829.56;;;28.52;41.66
9091;BME280;4581;42.416;25.598;2023-06-10T09:41:17;97828.72;;;28.24;41.67
9091;BME280;4581;42.416;25.598;2023-06-10T09:43:45;97833.66;;;28.27;42.42
9091;BME280;4581;42.416;25.598;2023-06-10T09:46:19;97832.59;;;28.10;42.65
9091;BME280;4581;42.416;25.598;2023-06-10T09:48:47;97828.06;;;28.00;42.43
9091;BME280;4581;42.416;25.598;2023-06-10T09:51:14;97834.63;;;28.04;43.65
9091;BME280;4581;42.416;25.598;2023-06-10T09:53:48;97828.84;;;28.01;42.87
9091;BME280;4581;42.416;25.598;2023-06-10T09:56:15;97835.28;;;28.15;43.57
9091;BME280;4581;42.416;25.598;2023-06-10T09:58:42;97834.19;;;28.43;42.09
9091;BME280;4581;42.416;25.598;2023-06-10T10:01:11;97836.53;;;28.22;40.32
9091;BME280;4581;42.416;25.598;2023-06-10T10:03:49;97831.38;;;28.16;41.96
9091;BME280;4581;42.416;25.598;2023-06-10T10:06:18;97830.13;;;28.08;42.82
9091;BME280;4581;42.416;25.598;2023-06-10T10:08:50;97837.75;;;28.30;41.79
9091;BME280;4581;42.416;25.598;2023-06-10T10:11:19;97829.13;;;28.18;41.70
9091;BME280;4581;42.416;25.598;2023-06-10T10:13:50;97838.47;;;28.22;41.22
9091;BME280;4581;42.416;25.598;2023-06-10T10:16:19;97838.16;;;28.23;40.55
9091;BME280;4581;42.416;25.598;2023-06-10T10:19:02;97835.06;;;28.25;38.66
9091;BME280;4581;42.416;25.598;2023-06-10T10:21:37;97839.59;;;28.21;39.98
9091;BME280;4581;42.416;25.598;2023-06-10T10:24:14;97830.41;;;28.07;39.43
9091;BME280;4581;42.416;25.598;2023-06-10T10:26:43;97826.44;;;28.13;39.65
9091;BME280;4581;42.416;25.598;2023-06-10T10:29:31;97824.88;;;28.07;39.16
9091;BME280;4581;42.416;25.598;2023-06-10T10:32:00;97828.84;;;28.01;39.23
9091;BME280;4581;42.416;25.598;2023-06-10T10:34:39;97827.19;;;27.86;40.05
9091;BME280;4581;42.416;25.598;2023-06-10T10:37:09;97814.66;;;27.88;43.92
9091;BME280;4581;42.416;25.598;2023-06-10T10:39:36;97815.63;;;27.65;41.34
9091;BME280;4581;42.416;25.598;2023-06-10T10:42:04;97822.66;;;27.76;40.97
9091;BME280;4581;42.416;25.598;2023-06-10T10:44:32;97821.84;;;27.89;41.83
9091;BME280;4581;42.416;25.598;2023-06-10T10:47:02;97821.06;;;28.03;39.67
9091;BME280;4581;42.416;25.598;2023-06-10T10:49:31;97829.84;;;28.23;39.14
9091;BME280;4581;42.416;25.598;2023-06-10T10:52:00;97825.00;;;28.29;40.48
9091;BME280;4581;42.416;25.598;2023-06-10T10:54:31;97819.28;;;28.39;39.61
9091;BME280;4581;42.416;25.598;2023-06-10T10:59:57;97817.84;;;28.28;39.47
9091;BME280;4581;42.416;25.598;2023-06-10T11:02:32;97821.34;;;28.47;40.14
9091;BME280;4581;42.416;25.598;2023-06-10T11:05:00;97818.25;;;28.62;39.08
9091;BME280;4581;42.416;25.598;2023-06-10T11:07:31;97825.34;;;28.55;37.25
9091;BME280;4581;42.416;25.598;2023-06-10T11:12:40;97816.00;;;28.64;36.73
9091;BME280;4581;42.416;25.598;2023-06-10T11:15:08;97812.28;;;28.82;37.58
9091;BME280;4581;42.416;25.598;2023-06-10T11:17:35;97802.00;;;28.97;37.97
9091;BME280;4581;42.416;25.598;2023-06-10T11:20:02;97803.66;;;29.20;38.76
9091;BME280;4581;42.416;25.598;2023-06-10T11:22:29;97805.34;;;29.43;36.41
9091;BME280;4581;42.416;25.598;2023-06-10T11:24:56;97799.53;;;29.17;36.13
9091;BME280;4581;42.416;25.598;2023-06-10T11:27:25;97803.97;;;29.18;35.93
9091;BME280;4581;42.416;25.598;2023-06-10T11:32:34;97786.84;;;29.39;36.51
9091;BME280;4581;42.416;25.598;2023-06-10T11:35:04;97785.63;;;29.75;35.40
9091;BME280;4581;42.416;25.598;2023-06-10T11:37:31;97788.94;;;30.08;34.34
9091;BME280;4581;42.416;25.598;2023-06-10T11:39:58;97792.00;;;29.98;34.49
9091;BME280;4581;42.416;25.598;2023-06-10T11:42:25;97791.03;;;30.03;36.07
9091;BME280;4581;42.416;25.598;2023-06-10T11:44:53;97786.75;;;29.97;34.37
9091;BME280;4581;42.416;25.598;2023-06-10T11:47:20;97778.25;;;30.02;35.99
9091;BME280;4581;42.416;25.598;2023-06-10T11:49:57;97777.50;;;30.58;34.08
9091;BME280;4581;42.416;25.598;2023-06-10T11:52:33;97780.19;;;30.72;34.42
9091;BME280;4581;42.416;25.598;2023-06-10T11:55:05;97777.25;;;30.77;34.19
9091;BME280;4581;42.416;25.598;2023-06-10T11:57:35;97771.38;;;30.95;34.20
9091;BME280;4581;42.416;25.598;2023-06-10T12:00:06;97771.56;;;30.99;33.08
9091;BME280;4581;42.416;25.598;2023-06-10T12:02:33;97761.06;;;31.22;32.94
9091;BME280;4581;42.416;25.598;2023-06-10T12:05:14;97771.38;;;31.47;31.97
9091;BME280;4581;42.416;25.598;2023-06-10T12:07:40;97769.41;;;31.47;31.17
9091;BME280;4581;42.416;25.598;2023-06-10T12:10:07;97767.63;;;31.43;30.64
9091;BME280;4581;42.416;25.598;2023-06-10T12:12:51;97762.03;;;31.69;30.57
9091;BME280;4581;42.416;25.598;2023-06-10T12:15:24;97767.53;;;31.94;31.07
9091;BME280;4581;42.416;25.598;2023-06-10T12:17:52;97750.34;;;31.84;29.92
9091;BME280;4581;42.416;25.598;2023-06-10T12:20:29;97753.97;;;31.76;31.30
9091;BME280;4581;42.416;25.598;2023-06-10T12:22:56;97751.47;;;31.91;31.98
9091;BME280;4581;42.416;25.598;2023-06-10T12:25:27;97765.66;;;32.24;31.57
9091;BME280;4581;42.416;25.598;2023-06-10T12:27:56;97759.66;;;31.96;30.58
9091;BME280;4581;42.416;25.598;2023-06-10T12:30:25;97758.28;;;31.47;31.86
9091;BME280;4581;42.416;25.598;2023-06-10T12:32:52;97750.09;;;30.99;32.33
9091;BME280;4581;42.416;25.598;2023-06-10T12:35:21;97749.09;;;30.95;34.93
9091;BME280;4581;42.416;25.598;2023-06-10T12:40:32;97742.91;;;31.16;32.87
9091;BME280;4581;42.416;25.598;2023-06-10T12:43:00;97746.28;;;30.87;34.35
9091;BME280;4581;42.416;25.598;2023-06-10T12:45:35;97737.59;;;30.62;35.55
9091;BME280;4581;42.416;25.598;2023-06-10T12:50:40;97733.34;;;30.74;34.07
9091;BME280;4581;42.416;25.598;2023-06-10T12:53:08;97728.44;;;30.88;34.51
9091;BME280;4581;42.416;25.598;2023-06-10T12:55:35;97725.47;;;30.67;34.54
9091;BME280;4581;42.416;25.598;2023-06-10T12:58:03;97723.22;;;30.30;35.02
9091;BME280;4581;42.416;25.598;2023-06-10T13:00:30;97725.03;;;30.17;36.06
9091;BME280;4581;42.416;25.598;2023-06-10T13:03:01;97723.50;;;30.11;35.30
9091;BME280;4581;42.416;25.598;2023-06-10T13:05:28;97710.91;;;30.13;36.41
9091;BME280;4581;42.416;25.598;2023-06-10T13:07:56;97718.47;;;30.13;34.58
9091;BME280;4581;42.416;25.598;2023-06-10T13:10:23;97716.25;;;29.93;35.24
9091;BME280;4581;42.416;25.598;2023-06-10T13:12:52;97715.63;;;29.73;37.26
9091;BME280;4581;42.416;25.598;2023-06-10T13:15:21;97702.72;;;29.69;35.59
9091;BME280;4581;42.416;25.598;2023-06-10T13:17:48;97716.41;;;29.65;35.92
9091;BME280;4581;42.416;25.598;2023-06-10T13:20:17;97719.19;;;29.65;37.21
9091;BME280;4581;42.416;25.598;2023-06-10T13:22:44;97720.75;;;29.80;35.93
9091;BME280;4581;42.416;25.598;2023-06-10T13:25:11;97724.34;;;29.81;36.62
9091;BME280;4581;42.416;25.598;2023-06-10T13:27:39;97711.81;;;29.61;38.27
9091;BME280;4581;42.416;25.598;2023-06-10T13:30:07;97715.16;;;29.49;36.27
9091;BME280;4581;42.416;25.598;2023-06-10T13:32:37;97710.66;;;29.31;36.42